createdAt,value
2018-07-21T00:00:54.181Z,7.10
2018-07-21T00:01:54.102Z,7.00
2018-07-21T00:02:54.616Z,6.90
2018-07-21T00:03:54.084Z,6.80
2018-07-21T00:04:54.069Z,6.90
2018-07-21T00:05:54.124Z,6.90
2018-07-21T00:06:54.049Z,6.70
2018-07-21T00:07:54.042Z,6.90
2018-07-21T00:08:54.030Z,7.00
2018-07-21T00:09:54.017Z,7.20
2018-07-21T00:10:54.071Z,7.10
2018-07-21T00:11:53.996Z,7.20
2018-07-21T00:12:53.982Z,7.10
2018-07-21T00:13:53.972Z,6.90
2018-07-21T00:14:53.961Z,6.50
2018-07-21T00:15:54.016Z,7.60
2018-07-21T00:16:53.939Z,6.40
2018-07-21T00:17:53.933Z,7.00
2018-07-21T00:18:53.917Z,6.50
2018-07-21T00:19:53.908Z,7.60
2018-07-21T00:20:53.964Z,8.00
2018-07-21T00:21:54.615Z,7.80
2018-07-21T00:22:53.877Z,7.20
2018-07-21T00:23:54.616Z,7.80
2018-07-21T00:24:53.853Z,7.30
2018-07-21T00:25:53.908Z,7.50
2018-07-21T00:26:53.833Z,7.50
2018-07-21T00:27:53.820Z,7.00
2018-07-21T00:28:53.809Z,7.60
2018-07-21T00:29:53.800Z,6.80
2018-07-21T00:30:53.861Z,7.30
2018-07-21T00:31:53.781Z,8.00
2018-07-21T00:32:53.767Z,8.10
2018-07-21T00:33:53.756Z,8.00
2018-07-21T00:34:53.761Z,8.10
2018-07-21T00:35:53.740Z,7.40
2018-07-21T00:36:53.789Z,7.90
2018-07-21T00:37:53.714Z,7.40
2018-07-21T00:38:53.704Z,7.60
2018-07-21T00:39:53.692Z,7.80
2018-07-21T00:40:53.681Z,8.00
2018-07-21T00:41:53.737Z,8.10
2018-07-21T00:42:53.657Z,8.10
2018-07-21T00:43:53.648Z,7.70
2018-07-21T00:44:54.617Z,8.50
2018-07-21T00:45:53.628Z,8.40
2018-07-21T00:46:53.681Z,7.80
2018-07-21T00:47:53.604Z,7.70
2018-07-21T00:48:53.595Z,8.20
2018-07-21T00:49:53.584Z,8.40
2018-07-21T00:50:53.576Z,7.70
2018-07-21T00:51:53.628Z,8.60
2018-07-21T00:52:53.551Z,9.20
2018-07-21T00:53:53.541Z,8.60
2018-07-21T00:54:53.537Z,8.90
2018-07-21T00:55:53.518Z,8.20
2018-07-21T00:56:53.576Z,8.70
2018-07-21T00:57:53.499Z,8.90
2018-07-21T00:58:53.488Z,8.50
2018-07-21T00:59:53.476Z,8.90
2018-07-21T01:00:53.468Z,9.10
2018-07-21T01:01:53.523Z,9.00
2018-07-21T01:02:53.443Z,8.80
2018-07-21T01:03:53.443Z,9.10
2018-07-21T01:04:53.425Z,8.40
2018-07-21T01:05:54.115Z,9.10
2018-07-21T01:06:53.466Z,8.90
2018-07-21T01:07:53.393Z,8.80
2018-07-21T01:08:53.381Z,8.50
2018-07-21T01:09:53.368Z,8.80
2018-07-21T01:10:53.357Z,8.40
2018-07-21T01:11:53.415Z,8.90
2018-07-21T01:12:53.342Z,8.80
2018-07-21T01:13:53.324Z,8.40
2018-07-21T01:14:53.316Z,9.30
2018-07-21T01:15:53.302Z,8.70
2018-07-21T01:16:53.360Z,9.10
2018-07-21T01:17:53.285Z,9.30
2018-07-21T01:18:53.270Z,8.30
2018-07-21T01:19:53.261Z,8.90
2018-07-21T01:20:53.250Z,9.10
2018-07-21T01:21:53.305Z,9.10
2018-07-21T01:22:53.228Z,9.60
2018-07-21T01:23:53.217Z,8.60
2018-07-21T01:24:53.206Z,7.90
2018-07-21T01:25:53.195Z,8.40
2018-07-21T01:26:53.689Z,7.50
2018-07-21T01:27:53.175Z,8.80
2018-07-21T01:28:53.164Z,9.10
2018-07-21T01:29:53.156Z,8.30
2018-07-21T01:30:53.142Z,8.50
2018-07-21T01:31:53.197Z,7.90
2018-07-21T01:32:53.120Z,8.60
2018-07-21T01:33:53.109Z,8.90
2018-07-21T01:34:53.095Z,9.00
2018-07-21T01:35:53.088Z,8.70
2018-07-21T01:36:53.142Z,8.30
2018-07-21T01:37:53.064Z,8.90
2018-07-21T01:38:53.057Z,8.70
2018-07-21T01:39:53.046Z,8.50
2018-07-21T01:40:53.032Z,9.00
2018-07-21T01:41:53.089Z,9.60
2018-07-21T01:42:53.012Z,9.30
2018-07-21T01:43:53.004Z,8.00
2018-07-21T01:44:52.990Z,8.70
2018-07-21T01:45:52.981Z,8.50
2018-07-21T01:46:53.034Z,9.10
2018-07-21T01:47:53.616Z,8.80
2018-07-21T01:48:52.949Z,8.20
2018-07-21T01:49:52.935Z,9.20
2018-07-21T01:50:52.926Z,8.30
2018-07-21T01:51:52.985Z,8.90
2018-07-21T01:52:52.907Z,8.10
2018-07-21T01:53:52.894Z,8.50
2018-07-21T01:54:52.882Z,9.20
2018-07-21T01:55:52.871Z,8.10
2018-07-21T01:56:52.926Z,8.50
2018-07-21T01:57:52.849Z,8.20
2018-07-21T01:58:52.841Z,9.00
2018-07-21T01:59:52.827Z,8.80
2018-07-21T02:00:52.816Z,9.40
2018-07-21T02:01:52.871Z,8.80
2018-07-21T02:02:52.791Z,8.60
2018-07-21T02:03:52.783Z,8.40
2018-07-21T02:04:52.780Z,10.10
2018-07-21T02:05:52.769Z,9.20
2018-07-21T02:06:52.816Z,9.10
2018-07-21T02:07:52.744Z,9.00
2018-07-21T02:08:53.610Z,9.60
2018-07-21T02:09:52.719Z,9.10
2018-07-21T02:10:52.708Z,8.80
2018-07-21T02:11:52.766Z,9.60
2018-07-21T02:12:52.686Z,8.30
2018-07-21T02:13:52.679Z,8.40
2018-07-21T02:14:52.666Z,9.00
2018-07-21T02:15:52.656Z,8.00
2018-07-21T02:16:52.716Z,9.80
2018-07-21T02:17:52.631Z,9.90
2018-07-21T02:19:00.761Z,9.50
2018-07-21T02:20:00.761Z,9.10
2018-07-21T02:20:52.600Z,9.40
2018-07-21T02:21:52.595Z,9.40
2018-07-21T02:22:52.778Z,9.20
2018-07-21T02:23:52.610Z,8.80
2018-07-21T02:25:00.689Z,9.20
2018-07-21T02:29:50.174Z,7.80
2018-07-21T02:30:50.125Z,8.10
2018-07-21T02:31:50.083Z,8.80
2018-07-21T02:32:50.140Z,8.80
2018-07-21T02:33:50.064Z,8.60
2018-07-21T02:34:50.058Z,9.30
2018-07-21T02:35:50.039Z,8.40
2018-07-21T02:36:50.033Z,9.50
2018-07-21T02:37:50.086Z,9.20
2018-07-21T02:38:50.006Z,9.50
2018-07-21T02:39:49.994Z,8.30
2018-07-21T02:40:49.985Z,9.20
2018-07-21T02:41:49.980Z,8.90
2018-07-21T02:42:50.030Z,9.20
2018-07-21T02:43:50.706Z,7.90
2018-07-21T02:44:49.947Z,8.30
2018-07-21T02:45:49.933Z,7.70
2018-07-21T02:46:49.922Z,8.30
2018-07-21T02:47:49.975Z,7.50
2018-07-21T02:48:49.898Z,9.20
2018-07-21T02:49:50.706Z,8.00
2018-07-21T02:50:49.881Z,9.00
2018-07-21T02:51:49.865Z,8.90
2018-07-21T02:52:49.924Z,8.80
2018-07-21T02:53:49.847Z,8.00
2018-07-21T02:54:49.842Z,8.70
2018-07-21T02:55:49.825Z,9.20
2018-07-21T02:56:49.825Z,9.60
2018-07-21T02:57:49.874Z,8.50
2018-07-21T02:58:49.796Z,8.80
2018-07-21T02:59:49.783Z,7.20
2018-07-21T03:00:49.772Z,7.90
2018-07-21T03:01:49.761Z,8.10
2018-07-21T03:02:49.817Z,7.60
2018-07-21T03:03:49.739Z,8.30
2018-07-21T03:04:49.729Z,7.90
2018-07-21T03:05:49.720Z,7.90
2018-07-21T03:06:49.709Z,8.00
2018-07-21T03:07:49.764Z,8.00
2018-07-21T03:08:49.684Z,7.80
2018-07-21T03:09:49.744Z,8.30
2018-07-21T03:10:50.202Z,7.80
2018-07-21T03:11:49.651Z,9.30
2018-07-21T03:12:49.711Z,8.80
2018-07-21T03:13:49.629Z,7.90
2018-07-21T03:14:49.621Z,7.80
2018-07-21T03:15:49.612Z,8.60
2018-07-21T03:16:49.598Z,8.30
2018-07-21T03:17:49.657Z,8.40
2018-07-21T03:18:49.579Z,8.50
2018-07-21T03:19:49.565Z,9.40
2018-07-21T03:20:49.554Z,8.70
2018-07-21T03:21:49.543Z,9.30
2018-07-21T03:22:49.609Z,8.80
2018-07-21T03:23:49.523Z,9.00
2018-07-21T03:24:49.512Z,9.50
2018-07-21T03:25:49.501Z,8.90
2018-07-21T03:26:49.490Z,9.10
2018-07-21T03:27:49.545Z,8.60
2018-07-21T03:28:49.474Z,9.40
2018-07-21T03:29:49.459Z,10.00
2018-07-21T03:30:49.455Z,9.80
2018-07-21T03:31:50.200Z,8.80
2018-07-21T03:32:49.485Z,8.90
2018-07-21T03:33:49.415Z,8.90
2018-07-21T03:34:49.406Z,8.60
2018-07-21T03:35:49.393Z,9.50
2018-07-21T03:36:49.387Z,9.50
2018-07-21T03:37:49.437Z,9.60
2018-07-21T03:38:49.360Z,10.40
2018-07-21T03:39:49.351Z,9.90
2018-07-21T03:40:49.340Z,8.80
2018-07-21T03:41:49.324Z,8.80
2018-07-21T03:42:49.382Z,9.90
2018-07-21T03:43:49.307Z,10.90
2018-07-21T03:44:49.296Z,9.70
2018-07-21T03:45:49.283Z,10.10
2018-07-21T03:46:49.271Z,8.80
2018-07-21T03:47:49.329Z,9.80
2018-07-21T03:48:49.270Z,10.30
2018-07-21T03:49:49.241Z,9.90
2018-07-21T03:50:49.230Z,10.80
2018-07-21T03:51:49.221Z,9.40
2018-07-21T03:52:49.775Z,9.50
2018-07-21T03:53:57.263Z,9.60
2018-07-21T03:54:49.185Z,9.90
2018-07-21T03:55:57.779Z,9.70
2018-07-21T03:56:49.163Z,9.60
2018-07-21T03:57:56.739Z,9.70
2018-07-21T03:58:49.147Z,8.80
2018-07-21T03:59:57.716Z,9.50
2018-07-21T04:00:49.120Z,9.80
2018-07-21T04:01:49.112Z,10.70
2018-07-21T04:02:56.706Z,9.70
2018-07-21T04:03:49.089Z,8.10
2018-07-21T04:04:49.075Z,9.60
2018-07-21T04:05:49.069Z,9.00
2018-07-21T04:06:49.056Z,9.80
2018-07-21T04:07:49.050Z,8.90
2018-07-21T04:08:57.274Z,10.10
2018-07-21T04:09:57.168Z,8.90
2018-07-21T04:10:49.020Z,9.50
2018-07-21T04:11:49.006Z,9.00
2018-07-21T04:12:48.991Z,8.70
2018-07-21T04:13:49.045Z,8.90
2018-07-21T04:14:48.968Z,9.90
2018-07-21T04:15:48.959Z,9.30
2018-07-21T04:16:48.946Z,9.50
2018-07-21T04:17:48.935Z,9.70
2018-07-21T04:18:48.992Z,9.60
2018-07-21T04:19:48.915Z,8.60
2018-07-21T04:20:48.910Z,9.40
2018-07-21T04:21:48.890Z,8.70
2018-07-21T04:22:48.884Z,9.40
2018-07-21T04:23:48.934Z,8.00
2018-07-21T04:24:48.857Z,8.10
2018-07-21T04:25:48.849Z,7.80
2018-07-21T04:26:48.838Z,8.90
2018-07-21T04:27:48.827Z,8.70
2018-07-21T04:28:48.882Z,9.20
2018-07-21T04:29:48.804Z,8.10
2018-07-21T04:30:49.451Z,9.20
2018-07-21T04:31:48.801Z,9.20
2018-07-21T04:32:48.771Z,8.90
2018-07-21T04:33:48.826Z,8.90
2018-07-21T04:34:48.749Z,9.00
2018-07-21T04:35:48.738Z,9.50
2018-07-21T04:36:48.729Z,9.00
2018-07-21T04:37:48.721Z,9.40
2018-07-21T04:38:48.771Z,9.20
2018-07-21T04:39:48.701Z,8.60
2018-07-21T04:40:48.683Z,9.00
2018-07-21T04:41:48.671Z,9.20
2018-07-21T04:42:48.661Z,8.90
2018-07-21T04:43:48.716Z,9.10
2018-07-21T04:44:48.638Z,9.40
2018-07-21T04:45:48.628Z,8.90
2018-07-21T04:46:48.616Z,9.30
2018-07-21T04:47:48.607Z,9.20
2018-07-21T04:48:48.660Z,9.50
2018-07-21T04:49:48.583Z,9.30
2018-07-21T04:50:48.572Z,8.80
2018-07-21T04:51:49.454Z,8.90
2018-07-21T04:52:48.550Z,9.20
2018-07-21T04:53:48.610Z,9.00
2018-07-21T04:54:48.533Z,9.30
2018-07-21T04:55:48.519Z,9.20
2018-07-21T04:56:48.508Z,8.80
2018-07-21T04:57:48.498Z,9.30
2018-07-21T04:58:48.550Z,9.50
2018-07-21T04:59:48.478Z,9.00
2018-07-21T05:00:48.506Z,9.10
2018-07-21T05:01:48.457Z,9.40
2018-07-21T05:02:48.439Z,7.80
2018-07-21T05:03:48.494Z,9.00
2018-07-21T05:04:48.947Z,9.20
2018-07-21T05:05:48.408Z,9.40
2018-07-21T05:06:48.403Z,7.90
2018-07-21T05:07:48.394Z,9.50
2018-07-21T05:08:48.442Z,9.30
2018-07-21T05:09:48.364Z,10.00
2018-07-21T05:10:48.356Z,9.20
2018-07-21T05:11:48.345Z,9.00
2018-07-21T05:12:48.949Z,9.10
2018-07-21T05:13:48.386Z,9.10
2018-07-21T05:14:48.309Z,9.10
2018-07-21T05:15:48.300Z,8.70
2018-07-21T05:16:48.292Z,9.00
2018-07-21T05:17:48.281Z,9.20
2018-07-21T05:18:48.334Z,9.50
2018-07-21T05:19:48.296Z,8.80
2018-07-21T05:20:48.245Z,9.10
2018-07-21T05:21:48.234Z,8.90
2018-07-21T05:22:48.223Z,8.70
2018-07-21T05:23:48.281Z,9.10
2018-07-21T05:24:48.201Z,9.10
2018-07-21T05:25:48.190Z,9.30
2018-07-21T05:26:48.179Z,9.30
2018-07-21T05:27:48.166Z,9.70
2018-07-21T05:28:48.223Z,9.00
2018-07-21T05:29:48.146Z,9.00
2018-07-21T05:30:48.135Z,8.80
2018-07-21T05:31:48.124Z,9.10
2018-07-21T05:32:48.113Z,8.20
2018-07-21T05:33:48.523Z,8.70
2018-07-21T05:34:48.093Z,8.00
2018-07-21T05:35:48.082Z,8.30
2018-07-21T05:36:48.069Z,9.10
2018-07-21T05:37:48.063Z,9.30
2018-07-21T05:38:48.126Z,8.50
2018-07-21T05:39:48.042Z,9.50
2018-07-21T05:40:48.033Z,8.90
2018-07-21T05:41:48.016Z,8.50
2018-07-21T05:42:48.005Z,8.90
2018-07-21T05:43:47.994Z,8.70
2018-07-21T05:44:48.055Z,8.80
2018-07-21T05:45:47.972Z,9.30
2018-07-21T05:46:47.961Z,8.10
2018-07-21T05:47:47.958Z,8.60
2018-07-21T05:48:47.943Z,8.80
2018-07-21T05:49:47.998Z,8.50
2018-07-21T05:50:47.922Z,7.80
2018-07-21T05:51:47.911Z,8.40
2018-07-21T05:52:47.902Z,8.60
2018-07-21T05:53:47.892Z,8.10
2018-07-21T05:54:48.028Z,8.30
2018-07-21T05:55:47.873Z,8.70
2018-07-21T05:56:47.856Z,8.10
2018-07-21T05:57:47.843Z,8.40
2018-07-21T05:58:47.833Z,8.60
2018-07-21T05:59:47.891Z,8.20
2018-07-21T06:00:47.809Z,8.70
2018-07-21T06:01:47.803Z,7.70
2018-07-21T06:02:47.852Z,8.00
2018-07-21T06:03:47.781Z,8.60
2018-07-21T06:04:47.840Z,8.20
2018-07-21T06:05:47.769Z,8.10
2018-07-21T06:06:47.748Z,8.30
2018-07-21T06:07:47.743Z,7.80
2018-07-21T06:08:55.933Z,8.50
2018-07-21T06:09:55.854Z,9.20
2018-07-21T06:10:56.595Z,8.60
2018-07-21T06:11:55.234Z,8.60
2018-07-21T06:12:47.689Z,8.90
2018-07-21T06:13:47.673Z,8.40
2018-07-21T06:14:47.726Z,8.70
2018-07-21T06:15:47.654Z,8.00
2018-07-21T06:16:55.786Z,7.40
2018-07-21T06:17:55.744Z,8.30
2018-07-21T06:18:55.754Z,8.90
2018-07-21T06:19:55.815Z,8.40
2018-07-21T06:20:55.663Z,7.10
2018-07-21T06:21:55.112Z,7.80
2018-07-21T06:22:47.577Z,8.00
2018-07-21T06:23:47.610Z,7.30
2018-07-21T06:24:47.615Z,7.80
2018-07-21T06:25:47.543Z,7.70
2018-07-21T06:26:47.530Z,7.40
2018-07-21T06:27:47.527Z,7.70
2018-07-21T06:28:47.510Z,7.80
2018-07-21T06:29:47.566Z,7.20
2018-07-21T06:30:47.488Z,7.30
2018-07-21T06:31:47.477Z,7.80
2018-07-21T06:32:47.479Z,7.80
2018-07-21T06:33:47.455Z,7.70
2018-07-21T06:34:47.510Z,8.20
2018-07-21T06:35:47.440Z,8.00
2018-07-21T06:36:47.427Z,8.60
2018-07-21T06:37:47.411Z,8.70
2018-07-21T06:38:47.403Z,8.30
2018-07-21T06:39:47.457Z,9.00
2018-07-21T06:40:47.383Z,8.70
2018-07-21T06:41:47.372Z,8.90
2018-07-21T06:42:48.294Z,8.70
2018-07-21T06:43:47.358Z,8.70
2018-07-21T06:44:47.410Z,8.80
2018-07-21T06:45:47.328Z,7.40
2018-07-21T06:46:47.319Z,8.30
2018-07-21T06:47:47.308Z,8.70
2018-07-21T06:48:47.297Z,8.70
2018-07-21T06:49:47.350Z,9.30
2018-07-21T06:50:47.273Z,8.90
2018-07-21T06:51:47.271Z,8.70
2018-07-21T06:52:47.250Z,8.90
2018-07-21T06:53:47.250Z,9.00
2018-07-21T06:54:47.297Z,8.80
2018-07-21T06:55:47.220Z,9.70
2018-07-21T06:56:47.209Z,8.70
2018-07-21T06:57:47.200Z,8.10
2018-07-21T06:58:47.187Z,8.20
2018-07-21T06:59:47.254Z,8.10
2018-07-21T07:00:47.165Z,8.40
2018-07-21T07:01:47.161Z,9.00
2018-07-21T07:02:47.147Z,9.30
2018-07-21T07:03:47.802Z,9.00
2018-07-21T07:04:47.267Z,8.60
2018-07-21T07:05:47.115Z,9.70
2018-07-21T07:06:47.104Z,9.70
2018-07-21T07:07:47.097Z,9.80
2018-07-21T07:08:47.088Z,11.00
2018-07-21T07:09:47.131Z,11.10
2018-07-21T07:10:47.061Z,10.40
2018-07-21T07:11:47.054Z,10.90
2018-07-21T07:12:47.045Z,10.60
2018-07-21T07:13:47.034Z,10.50
2018-07-21T07:14:47.084Z,10.20
2018-07-21T07:15:47.009Z,11.00
2018-07-21T07:16:46.998Z,11.10
2018-07-21T07:17:46.987Z,9.60
2018-07-21T07:18:46.976Z,9.50
2018-07-21T07:19:47.058Z,9.60
2018-07-21T07:20:47.015Z,10.80
2018-07-21T07:21:46.951Z,11.10
2018-07-21T07:22:46.934Z,10.00
2018-07-21T07:23:46.923Z,10.70
2018-07-21T07:24:47.800Z,10.80
2018-07-21T07:25:46.962Z,10.40
2018-07-21T07:26:46.891Z,11.20
2018-07-21T07:27:46.879Z,11.50
2018-07-21T07:28:46.873Z,11.00
2018-07-21T07:29:46.860Z,11.70
2018-07-21T07:30:46.921Z,11.70
2018-07-21T07:31:46.843Z,12.40
2018-07-21T07:32:46.832Z,10.70
2018-07-21T07:33:46.818Z,13.30
2018-07-21T07:34:46.810Z,12.30
2018-07-21T07:35:46.869Z,12.50
2018-07-21T07:36:46.787Z,11.80
2018-07-21T07:37:46.781Z,11.30
2018-07-21T07:38:46.768Z,11.70
2018-07-21T07:39:46.754Z,10.90
2018-07-21T07:40:46.818Z,12.30
2018-07-21T07:41:46.739Z,11.50
2018-07-21T07:42:46.727Z,11.70
2018-07-21T07:43:46.722Z,11.80
2018-07-21T07:44:46.708Z,11.40
2018-07-21T07:45:47.364Z,11.90
2018-07-21T07:46:46.687Z,12.30
2018-07-21T07:47:46.674Z,12.60
2018-07-21T07:48:46.666Z,11.50
2018-07-21T07:49:46.655Z,11.80
2018-07-21T07:50:46.713Z,12.30
2018-07-21T07:51:46.633Z,12.50
2018-07-21T07:52:46.626Z,11.50
2018-07-21T07:53:46.617Z,12.30
2018-07-21T07:54:46.605Z,12.10
2018-07-21T07:55:46.664Z,11.90
2018-07-21T07:56:46.593Z,13.10
2018-07-21T07:57:46.574Z,13.10
2018-07-21T07:58:46.563Z,12.60
2018-07-21T07:59:46.555Z,13.70
2018-07-21T08:00:46.608Z,12.60
2018-07-21T08:01:46.533Z,11.80
2018-07-21T08:02:46.525Z,14.30
2018-07-21T08:03:46.519Z,13.30
2018-07-21T08:04:46.506Z,14.60
2018-07-21T08:05:46.563Z,15.20
2018-07-21T08:06:47.304Z,13.10
2018-07-21T08:07:46.472Z,14.40
2018-07-21T08:08:46.472Z,14.20
2018-07-21T08:09:46.455Z,13.50
2018-07-21T08:10:46.513Z,11.00
2018-07-21T08:11:46.435Z,13.80
2018-07-21T08:12:46.427Z,14.10
2018-07-21T08:13:46.414Z,14.30
2018-07-21T08:14:46.406Z,14.10
2018-07-21T08:15:46.464Z,12.90
2018-07-21T08:16:46.386Z,13.40
2018-07-21T08:17:46.377Z,13.90
2018-07-21T08:18:46.372Z,14.80
2018-07-21T08:19:46.358Z,14.00
2018-07-21T08:20:46.411Z,13.10
2018-07-21T08:21:46.340Z,15.00
2018-07-21T08:22:46.325Z,14.60
2018-07-21T08:23:46.314Z,16.10
2018-07-21T08:24:46.308Z,14.80
2018-07-21T08:25:46.367Z,16.80
2018-07-21T08:26:46.289Z,16.30
2018-07-21T08:27:46.800Z,14.20
2018-07-21T08:28:46.269Z,15.40
2018-07-21T08:29:46.261Z,15.70
2018-07-21T08:30:46.322Z,15.10
2018-07-21T08:31:46.244Z,16.50
2018-07-21T08:32:46.230Z,15.60
2018-07-21T08:33:46.219Z,17.00
2018-07-21T08:34:46.281Z,15.70
2018-07-21T08:35:46.272Z,14.50
2018-07-21T08:36:46.195Z,14.80
2018-07-21T08:37:46.183Z,15.90
2018-07-21T08:38:46.178Z,16.70
2018-07-21T08:39:46.166Z,15.20
2018-07-21T08:40:46.224Z,15.60
2018-07-21T08:41:46.147Z,16.40
2018-07-21T08:42:46.139Z,18.50
2018-07-21T08:43:46.133Z,16.50
2018-07-21T08:44:46.122Z,16.90
2018-07-21T08:45:46.180Z,16.50
2018-07-21T08:46:46.105Z,19.90
2018-07-21T08:47:46.094Z,17.10
2018-07-21T08:48:46.801Z,16.70
2018-07-21T08:49:46.087Z,18.00
2018-07-21T08:50:46.132Z,17.20
2018-07-21T08:51:46.068Z,16.50
2018-07-21T08:52:46.049Z,17.20
2018-07-21T08:53:46.038Z,17.70
2018-07-21T08:54:46.030Z,17.80
2018-07-21T08:55:46.163Z,18.00
2018-07-21T08:56:46.011Z,18.40
2018-07-21T08:57:46.005Z,19.70
2018-07-21T08:58:45.994Z,18.50
2018-07-21T08:59:45.985Z,18.90
2018-07-21T09:00:46.041Z,19.30
2018-07-21T09:01:45.966Z,21.00
2018-07-21T09:02:45.968Z,17.80
2018-07-21T09:03:45.947Z,19.50
2018-07-21T09:04:45.935Z,21.20
2018-07-21T09:05:46.028Z,22.40
2018-07-21T09:06:45.919Z,19.00
2018-07-21T09:07:45.910Z,20.70
2018-07-21T09:08:53.431Z,19.80
2018-07-21T09:09:45.893Z,20.80
2018-07-21T09:10:45.886Z,20.60
2018-07-21T09:11:45.943Z,19.80
2018-07-21T09:12:45.863Z,20.50
2018-07-21T09:13:45.856Z,19.00
2018-07-21T09:14:45.841Z,19.10
2018-07-21T09:15:45.835Z,20.40
2018-07-21T09:16:45.896Z,19.80
2018-07-21T09:17:45.813Z,19.00
2018-07-21T09:18:45.805Z,19.50
2018-07-21T09:19:45.794Z,18.60
2018-07-21T09:20:45.785Z,18.90
2018-07-21T09:21:45.846Z,20.90
2018-07-21T09:22:45.769Z,22.30
2018-07-21T09:23:45.758Z,21.20
2018-07-21T09:24:45.746Z,21.80
2018-07-21T09:25:45.741Z,19.50
2018-07-21T09:26:45.807Z,19.20
2018-07-21T09:27:45.726Z,21.30
2018-07-21T09:28:45.710Z,17.90
2018-07-21T09:29:46.351Z,19.30
2018-07-21T09:30:45.691Z,17.20
2018-07-21T09:31:45.746Z,18.10
2018-07-21T09:32:45.680Z,20.80
2018-07-21T09:33:45.664Z,19.30
2018-07-21T09:34:45.663Z,16.30
2018-07-21T09:35:45.644Z,19.10
2018-07-21T09:36:45.699Z,17.90
2018-07-21T09:37:45.635Z,20.60
2018-07-21T09:38:45.621Z,21.00
2018-07-21T09:39:45.607Z,18.90
2018-07-21T09:40:45.599Z,19.50
2018-07-21T09:41:45.659Z,20.20
2018-07-21T09:42:45.585Z,19.80
2018-07-21T09:43:45.574Z,20.70
2018-07-21T09:44:45.565Z,20.80
2018-07-21T09:45:45.554Z,22.90
2018-07-21T09:46:45.609Z,21.70
2018-07-21T09:47:45.537Z,20.90
2018-07-21T09:48:45.532Z,20.10
2018-07-21T09:49:45.518Z,23.30
2018-07-21T09:50:46.353Z,23.40
2018-07-21T09:51:45.572Z,21.20
2018-07-21T09:52:45.493Z,23.40
2018-07-21T09:53:45.491Z,19.50
2018-07-21T09:54:45.476Z,22.40
2018-07-21T09:55:45.508Z,20.10
2018-07-21T09:56:45.525Z,22.80
2018-07-21T09:57:53.584Z,21.70
2018-07-21T09:58:53.589Z,20.50
2018-07-21T09:59:45.434Z,21.30
2018-07-21T10:00:45.432Z,23.60
2018-07-21T10:01:45.486Z,22.20
2018-07-21T10:02:45.414Z,21.20
2018-07-21T10:03:45.411Z,25.20
2018-07-21T10:04:45.407Z,26.70
2018-07-21T10:05:53.533Z,27.20
2018-07-21T10:06:53.609Z,25.90
2018-07-21T10:08:00.509Z,21.90
2018-07-21T10:08:52.886Z,22.10
2018-07-21T10:09:53.459Z,22.90
2018-07-21T10:10:45.347Z,25.40
2018-07-21T10:11:45.408Z,23.30
2018-07-21T10:12:45.330Z,23.90
2018-07-21T10:13:45.324Z,23.40
2018-07-21T10:14:45.316Z,24.20
2018-07-21T10:15:45.319Z,24.20
2018-07-21T10:16:45.365Z,29.70
2018-07-21T10:17:45.297Z,30.20
2018-07-21T10:18:45.292Z,27.70
2018-07-21T10:19:45.285Z,27.50
2018-07-21T10:20:45.271Z,25.50
2018-07-21T10:21:45.384Z,27.10
2018-07-21T10:22:45.257Z,26.60
2018-07-21T10:23:45.252Z,26.30
2018-07-21T10:24:45.246Z,25.30
2018-07-21T10:25:45.237Z,27.60
2018-07-21T10:26:45.650Z,28.10
2018-07-21T10:27:45.217Z,27.20
2018-07-21T10:28:45.215Z,29.90
2018-07-21T10:29:45.207Z,26.50
2018-07-21T10:30:46.070Z,27.70
2018-07-21T10:31:45.264Z,30.80
2018-07-21T10:32:45.184Z,24.80
2018-07-21T10:33:45.181Z,27.90
2018-07-21T10:34:45.167Z,28.90
2018-07-21T10:35:45.161Z,27.50
2018-07-21T10:36:45.224Z,26.40
2018-07-21T10:37:45.144Z,25.10
2018-07-21T10:38:45.142Z,27.70
2018-07-21T10:39:45.131Z,29.50
2018-07-21T10:40:45.125Z,27.20
2018-07-21T10:41:45.187Z,25.50
2018-07-21T10:42:45.114Z,26.50
2018-07-21T10:43:45.102Z,27.10
2018-07-21T10:44:45.139Z,29.10
2018-07-21T10:45:45.091Z,28.90
2018-07-21T10:46:45.159Z,28.80
2018-07-21T10:47:45.074Z,30.20
2018-07-21T10:48:45.134Z,30.90
2018-07-21T10:49:45.072Z,27.20
2018-07-21T10:50:45.074Z,27.50
2018-07-21T10:51:45.565Z,28.70
2018-07-21T10:52:45.109Z,28.00
2018-07-21T10:53:45.045Z,30.00
2018-07-21T10:54:45.029Z,31.40
2018-07-21T10:55:45.026Z,30.90
2018-07-21T10:56:45.017Z,33.00
2018-07-21T10:57:45.075Z,34.90
2018-07-21T10:58:45.000Z,35.10
2018-07-21T10:59:44.995Z,30.40
2018-07-21T11:00:44.986Z,31.70
2018-07-21T11:01:44.980Z,32.60
2018-07-21T11:02:45.042Z,32.00
2018-07-21T11:03:44.975Z,33.70
2018-07-21T11:04:44.966Z,31.70
2018-07-21T11:05:44.957Z,32.10
2018-07-21T11:06:44.946Z,32.70
2018-07-21T11:07:45.007Z,32.00
2018-07-21T11:08:44.932Z,35.40
2018-07-21T11:09:44.930Z,35.20
2018-07-21T11:10:44.924Z,34.80
2018-07-21T11:11:44.915Z,33.30
2018-07-21T11:12:45.141Z,32.70
2018-07-21T11:13:44.904Z,34.80
2018-07-21T11:14:44.898Z,34.20
2018-07-21T11:15:44.892Z,34.20
2018-07-21T11:16:44.883Z,36.60
2018-07-21T11:17:44.947Z,37.60
2018-07-21T11:18:44.870Z,34.70
2018-07-21T11:19:44.872Z,32.90
2018-07-21T11:20:44.864Z,32.50
2018-07-21T11:21:44.854Z,34.60
2018-07-21T11:22:44.913Z,34.70
2018-07-21T11:23:44.841Z,34.50
2018-07-21T11:24:44.835Z,33.90
2018-07-21T11:25:44.829Z,36.20
2018-07-21T11:26:44.822Z,33.20
2018-07-21T11:27:44.882Z,32.30
2018-07-21T11:28:44.818Z,32.10
2018-07-21T11:29:44.804Z,33.70
2018-07-21T11:30:44.798Z,33.10
2018-07-21T11:31:44.792Z,32.50
2018-07-21T11:32:44.851Z,35.00
2018-07-21T11:33:45.549Z,33.70
2018-07-21T11:34:44.772Z,34.60
2018-07-21T11:35:44.943Z,33.10
2018-07-21T11:36:44.777Z,31.30
2018-07-21T11:37:44.821Z,34.90
2018-07-21T11:38:44.753Z,32.50
2018-07-21T11:39:44.741Z,33.40
2018-07-21T11:40:44.735Z,31.90
2018-07-21T11:41:44.727Z,32.50
2018-07-21T11:42:44.790Z,33.50
2018-07-21T11:43:44.713Z,37.60
2018-07-21T11:44:44.713Z,37.90
2018-07-21T11:45:44.701Z,38.30
2018-07-21T11:46:44.695Z,34.80
2018-07-21T11:47:44.756Z,35.50
2018-07-21T11:48:44.692Z,33.10
2018-07-21T11:49:44.679Z,32.70
2018-07-21T11:50:44.670Z,35.00
2018-07-21T11:51:44.667Z,31.80
2018-07-21T11:52:44.727Z,32.20
2018-07-21T11:53:44.651Z,30.00
2018-07-21T11:54:45.534Z,31.40
2018-07-21T11:55:44.646Z,31.70
2018-07-21T11:56:44.634Z,31.90
2018-07-21T11:57:44.697Z,32.40
2018-07-21T11:58:44.619Z,35.20
2018-07-21T11:59:44.621Z,32.30
2018-07-21T12:00:44.608Z,35.80
2018-07-21T12:01:44.604Z,32.80
2018-07-21T12:02:44.664Z,34.40
2018-07-21T12:03:44.589Z,33.80
2018-07-21T12:04:44.579Z,33.20
2018-07-21T12:05:44.651Z,35.30
2018-07-21T12:06:44.583Z,33.30
2018-07-21T12:07:44.628Z,33.40
2018-07-21T12:08:44.560Z,34.80
2018-07-21T12:09:44.547Z,34.90
2018-07-21T12:10:44.544Z,36.40
2018-07-21T12:11:44.538Z,38.40
2018-07-21T12:12:44.597Z,36.40
2018-07-21T12:13:44.525Z,35.40
2018-07-21T12:14:44.518Z,37.20
2018-07-21T12:15:45.028Z,37.10
2018-07-21T12:16:44.504Z,37.10
2018-07-21T12:17:44.560Z,35.40
2018-07-21T12:18:44.493Z,34.00
2018-07-21T12:19:44.487Z,36.00
2018-07-21T12:20:44.482Z,37.30
2018-07-21T12:21:44.476Z,37.30
2018-07-21T12:22:44.533Z,34.90
2018-07-21T12:23:44.464Z,35.00
2018-07-21T12:24:44.453Z,33.00
2018-07-21T12:25:44.453Z,33.10
2018-07-21T12:26:44.447Z,31.30
2018-07-21T12:27:44.507Z,30.20
2018-07-21T12:28:44.431Z,31.70
2018-07-21T12:29:44.424Z,31.30
2018-07-21T12:30:44.419Z,30.70
2018-07-21T12:31:44.418Z,32.30
2018-07-21T12:32:44.476Z,33.40
2018-07-21T12:33:44.519Z,34.10
2018-07-21T12:34:44.454Z,35.10
2018-07-21T12:35:44.388Z,36.70
2018-07-21T12:36:45.013Z,33.80
2018-07-21T12:37:44.386Z,33.40
2018-07-21T12:38:44.437Z,32.50
2018-07-21T12:39:44.360Z,32.00
2018-07-21T12:40:44.356Z,30.80
2018-07-21T12:41:44.351Z,32.70
2018-07-21T12:42:44.343Z,33.30
2018-07-21T12:43:44.414Z,30.90
2018-07-21T12:44:44.375Z,30.60
2018-07-21T12:45:44.322Z,33.30
2018-07-21T12:46:44.318Z,31.40
2018-07-21T12:47:44.311Z,30.70
2018-07-21T12:48:44.369Z,31.90
2018-07-21T12:49:44.298Z,32.60
2018-07-21T12:50:44.288Z,32.80
2018-07-21T12:51:44.283Z,33.00
2018-07-21T12:52:44.277Z,31.50
2018-07-21T12:53:44.335Z,31.20
2018-07-21T12:54:44.266Z,30.40
2018-07-21T12:55:44.258Z,29.30
2018-07-21T12:56:44.249Z,32.20
2018-07-21T12:57:45.007Z,31.50
2018-07-21T12:58:44.309Z,29.50
2018-07-21T12:59:44.238Z,29.40
2018-07-21T13:00:44.223Z,29.80
2018-07-21T13:01:44.215Z,28.00
2018-07-21T13:02:44.209Z,28.10
2018-07-21T13:03:44.267Z,27.10
2018-07-21T13:04:44.190Z,26.00
2018-07-21T13:05:44.184Z,26.40
2018-07-21T13:06:44.181Z,26.80
2018-07-21T13:07:44.173Z,24.50
2018-07-21T13:08:44.231Z,25.40
2018-07-21T13:09:44.210Z,25.20
2018-07-21T13:10:44.148Z,23.20